createdAt,value
2019-03-09T00:01:49.185Z,10.00
2019-03-09T00:04:16.027Z,9.33
2019-03-09T00:06:42.598Z,10.67
2019-03-09T00:09:09.417Z,7.60
2019-03-09T00:11:36.055Z,11.03
2019-03-09T00:14:03.069Z,7.53
2019-03-09T00:16:29.805Z,9.27
2019-03-09T00:18:56.325Z,9.50
2019-03-09T00:21:22.948Z,9.03
2019-03-09T00:23:57.302Z,10.20
2019-03-09T00:26:25.717Z,11.10
2019-03-09T00:29:11.999Z,9.10
2019-03-09T00:31:49.638Z,12.80
2019-03-09T00:34:16.959Z,9.80
2019-03-09T00:36:43.598Z,12.80
2019-03-09T00:39:10.403Z,12.30
2019-03-09T00:41:37.555Z,12.50
2019-03-09T00:44:04.096Z,18.40
2019-03-09T00:46:30.602Z,13.17
2019-03-09T00:48:57.127Z,15.37
2019-03-09T00:51:23.853Z,16.13
2019-03-09T00:53:50.403Z,16.70
2019-03-09T00:56:17.035Z,16.93
2019-03-09T00:58:43.775Z,15.73
2019-03-09T01:01:10.588Z,16.53
2019-03-09T01:03:37.135Z,14.23
2019-03-09T01:06:03.642Z,14.33
2019-03-09T01:08:30.218Z,13.17
2019-03-09T01:10:56.723Z,17.23
2019-03-09T01:13:23.373Z,13.97
2019-03-09T01:15:50.001Z,16.40
2019-03-09T01:18:16.551Z,13.43
2019-03-09T01:20:43.155Z,17.80
2019-03-09T01:23:09.700Z,15.43
2019-03-09T01:25:36.211Z,13.10
2019-03-09T01:28:02.855Z,19.27
2019-03-09T01:30:29.381Z,14.60
2019-03-09T01:32:56.002Z,17.47
2019-03-09T01:35:22.628Z,15.23
2019-03-09T01:37:49.409Z,14.70
2019-03-09T01:40:16.118Z,20.57
2019-03-09T01:42:42.853Z,18.60
2019-03-09T01:45:12.477Z,15.93
2019-03-09T01:47:39.095Z,16.23
2019-03-09T01:50:07.631Z,18.00
2019-03-09T01:52:34.252Z,16.60
2019-03-09T01:55:00.891Z,14.03
2019-03-09T01:57:28.511Z,19.03
2019-03-09T01:59:55.155Z,16.87
2019-03-09T02:02:21.770Z,15.20
2019-03-09T02:04:48.706Z,16.30
2019-03-09T02:07:15.344Z,14.07
2019-03-09T02:09:41.988Z,15.40
2019-03-09T02:12:08.603Z,14.50
2019-03-09T02:14:35.233Z,13.17
2019-03-09T02:17:01.970Z,14.83
2019-03-09T02:19:28.504Z,13.07
2019-03-09T02:22:13.225Z,11.27
2019-03-09T02:24:39.871Z,13.63
2019-03-09T02:27:06.486Z,13.17
2019-03-09T02:29:33.028Z,10.73
2019-03-09T02:31:59.628Z,11.03
2019-03-09T02:34:26.270Z,12.47
2019-03-09T02:36:52.800Z,11.60
2019-03-09T02:39:27.290Z,11.70
2019-03-09T02:41:53.817Z,11.10
2019-03-09T02:44:20.441Z,14.77
2019-03-09T02:46:46.951Z,10.27
2019-03-09T02:49:13.596Z,11.20
2019-03-09T02:51:40.103Z,12.20
2019-03-09T02:54:06.750Z,11.27
2019-03-09T02:56:33.667Z,11.93
2019-03-09T02:59:00.324Z,13.80
2019-03-09T03:01:28.753Z,13.83
2019-03-09T03:03:55.488Z,13.93
2019-03-09T03:06:22.104Z,17.40
2019-03-09T03:08:48.765Z,14.13
2019-03-09T03:11:15.280Z,12.23
2019-03-09T03:13:41.823Z,15.90
2019-03-09T03:16:08.443Z,14.00
2019-03-09T03:18:34.963Z,16.00
2019-03-09T03:21:01.493Z,17.23
2019-03-09T03:23:28.008Z,19.67
2019-03-09T03:25:54.556Z,18.33
2019-03-09T03:28:21.055Z,15.80
2019-03-09T03:30:47.685Z,15.93
2019-03-09T03:33:14.325Z,16.90
2019-03-09T03:35:40.867Z,16.70
2019-03-09T03:38:07.639Z,15.43
2019-03-09T03:40:34.392Z,18.80
2019-03-09T03:43:00.894Z,16.50
2019-03-09T03:45:28.040Z,15.43
2019-03-09T03:47:54.857Z,15.70
2019-03-09T03:50:21.493Z,19.20
2019-03-09T03:52:48.198Z,15.20
2019-03-09T03:55:14.746Z,17.23
2019-03-09T03:57:41.356Z,17.07
2019-03-09T04:00:10.109Z,19.10
2019-03-09T04:02:36.816Z,20.40
2019-03-09T04:05:04.591Z,16.30
2019-03-09T04:07:31.247Z,18.27
2019-03-09T04:09:57.964Z,18.10
2019-03-09T04:12:24.976Z,17.37
2019-03-09T04:14:51.558Z,19.40
2019-03-09T04:17:18.040Z,19.50
2019-03-09T04:19:44.597Z,17.33
2019-03-09T04:22:11.107Z,17.50
2019-03-09T04:24:38.971Z,15.47
2019-03-09T04:27:05.774Z,20.33
2019-03-09T04:29:32.319Z,15.97
2019-03-09T04:31:58.937Z,14.30
2019-03-09T04:34:25.467Z,15.43
2019-03-09T04:36:59.510Z,13.83
2019-03-09T04:39:26.124Z,15.90
2019-03-09T04:41:53.055Z,15.57
2019-03-09T04:44:19.592Z,15.27
2019-03-09T04:46:46.239Z,15.13
2019-03-09T04:49:12.847Z,15.97
2019-03-09T04:51:39.407Z,15.53
2019-03-09T04:54:06.024Z,17.37
2019-03-09T04:56:33.570Z,14.63
2019-03-09T04:59:00.174Z,14.43
2019-03-09T05:01:26.726Z,16.73
2019-03-09T05:04:18.795Z,16.40
2019-03-09T05:06:45.311Z,15.57
2019-03-09T05:09:15.644Z,15.40
2019-03-09T05:11:42.183Z,15.37
2019-03-09T05:14:08.699Z,14.27
2019-03-09T05:16:35.239Z,16.47
2019-03-09T05:19:01.773Z,14.23
2019-03-09T05:21:28.323Z,14.17
2019-03-09T05:23:54.938Z,12.60
2019-03-09T05:26:21.482Z,13.53
2019-03-09T05:28:49.703Z,13.73
2019-03-09T05:31:17.936Z,14.37
2019-03-09T05:33:44.459Z,12.63
2019-03-09T05:36:10.998Z,11.80
2019-03-09T05:38:37.407Z,12.60
2019-03-09T05:41:04.079Z,14.67
2019-03-09T05:43:30.626Z,12.67
2019-03-09T05:45:57.168Z,12.17
2019-03-09T05:48:23.683Z,13.63
2019-03-09T05:50:50.224Z,11.60
2019-03-09T05:53:17.948Z,11.30
2019-03-09T05:55:44.597Z,11.63
2019-03-09T05:58:11.302Z,11.20
2019-03-09T06:00:38.956Z,11.90
2019-03-09T06:03:05.771Z,11.27
2019-03-09T06:05:36.123Z,12.37
2019-03-09T06:08:03.611Z,11.90
2019-03-09T06:10:30.255Z,12.47
2019-03-09T06:12:57.175Z,12.27
2019-03-09T06:15:23.807Z,13.07
2019-03-09T06:17:50.418Z,13.40
2019-03-09T06:20:16.931Z,12.80
2019-03-09T06:22:43.472Z,13.47
2019-03-09T06:25:10.004Z,12.37
2019-03-09T06:27:36.453Z,11.87
2019-03-09T06:30:04.366Z,10.40
2019-03-09T06:32:34.830Z,9.70
2019-03-09T06:35:01.315Z,10.90
2019-03-09T06:37:30.380Z,10.27
2019-03-09T06:39:57.015Z,10.47
2019-03-09T06:42:32.779Z,8.37
2019-03-09T06:44:59.330Z,8.23
2019-03-09T06:47:25.963Z,8.73
2019-03-09T06:49:52.583Z,7.93
2019-03-09T06:52:19.227Z,8.83
2019-03-09T06:54:45.944Z,8.73
2019-03-09T06:57:14.126Z,7.53
2019-03-09T06:59:40.801Z,8.13
2019-03-09T07:02:07.470Z,6.70
2019-03-09T07:04:34.066Z,7.30
2019-03-09T07:07:00.710Z,6.63
2019-03-09T07:09:27.227Z,7.97
2019-03-09T07:11:53.776Z,7.77
2019-03-09T07:14:53.363Z,9.00
2019-03-09T07:17:19.901Z,6.37
2019-03-09T07:19:46.528Z,7.10
2019-03-09T07:22:13.064Z,7.63
2019-03-09T07:24:39.565Z,9.30
2019-03-09T07:27:06.107Z,11.03
2019-03-09T07:29:32.647Z,7.77
2019-03-09T07:31:59.182Z,12.50
2019-03-09T07:34:26.449Z,10.30
2019-03-09T07:36:52.981Z,12.27
2019-03-09T07:39:19.427Z,8.33
2019-03-09T07:41:46.060Z,8.50
2019-03-09T07:44:12.567Z,9.83
2019-03-09T07:46:39.111Z,7.97
2019-03-09T07:49:05.619Z,10.23
2019-03-09T07:51:32.237Z,9.20
2019-03-09T07:53:58.778Z,7.93
2019-03-09T07:56:25.399Z,9.17
2019-03-09T07:58:51.935Z,8.63
2019-03-09T08:01:18.561Z,10.60
2019-03-09T08:03:45.121Z,11.30
2019-03-09T08:06:11.624Z,6.57
2019-03-09T08:08:38.771Z,12.17
2019-03-09T08:11:06.196Z,11.90
2019-03-09T08:13:32.839Z,13.50
2019-03-09T08:16:00.253Z,10.33
2019-03-09T08:18:27.515Z,13.27
2019-03-09T08:20:54.128Z,9.90
2019-03-09T08:23:20.771Z,14.30
2019-03-09T08:25:47.600Z,12.90
2019-03-09T08:28:16.253Z,13.13
2019-03-09T08:30:42.648Z,8.13
2019-03-09T08:33:09.287Z,8.07
2019-03-09T08:35:35.932Z,8.90
2019-03-09T08:38:02.748Z,14.83
2019-03-09T08:40:29.423Z,12.77
2019-03-09T08:42:55.967Z,15.63
2019-03-09T08:45:22.476Z,13.47
2019-03-09T08:47:52.609Z,9.40
2019-03-09T08:50:20.137Z,14.40
2019-03-09T08:52:48.401Z,15.83
2019-03-09T08:55:18.222Z,11.47
2019-03-09T08:57:44.997Z,10.93
2019-03-09T09:00:17.036Z,14.67
2019-03-09T09:02:43.700Z,19.43
2019-03-09T09:05:10.333Z,14.87
2019-03-09T09:07:36.838Z,18.53
2019-03-09T09:10:06.400Z,14.17
2019-03-09T09:12:32.936Z,12.03
2019-03-09T09:14:59.478Z,13.10
2019-03-09T09:17:26.004Z,15.43
2019-03-09T09:19:52.569Z,17.93
2019-03-09T09:22:19.187Z,14.57
2019-03-09T09:24:45.744Z,14.20
2019-03-09T09:27:13.955Z,19.27
2019-03-09T09:29:40.491Z,17.77
2019-03-09T09:32:07.817Z,17.90
2019-03-09T09:34:34.395Z,12.87
2019-03-09T09:37:01.111Z,19.20
2019-03-09T09:39:27.788Z,14.90
2019-03-09T09:41:56.002Z,14.20
2019-03-09T09:44:22.652Z,10.87
2019-03-09T09:46:50.010Z,10.10
2019-03-09T09:49:17.354Z,13.10
2019-03-09T09:51:43.982Z,13.70
2019-03-09T09:54:10.671Z,15.47
2019-03-09T09:56:37.302Z,16.00
2019-03-09T09:59:03.864Z,7.67
2019-03-09T10:01:30.376Z,13.30
2019-03-09T10:03:56.937Z,14.33
2019-03-09T10:06:23.503Z,13.23
2019-03-09T10:08:50.216Z,9.83
2019-03-09T10:11:16.623Z,9.70
2019-03-09T10:13:43.358Z,9.83
2019-03-09T10:16:09.968Z,7.97
2019-03-09T10:18:36.533Z,7.30
2019-03-09T10:21:03.256Z,6.63
2019-03-09T10:23:29.826Z,10.90
2019-03-09T10:25:56.418Z,5.90
2019-03-09T10:28:22.941Z,6.20
2019-03-09T10:30:49.599Z,7.67
2019-03-09T10:33:16.326Z,7.57
2019-03-09T10:35:43.100Z,8.53
2019-03-09T10:38:09.715Z,7.70
2019-03-09T10:40:36.886Z,9.03
2019-03-09T10:43:03.694Z,10.60
2019-03-09T10:45:30.304Z,12.70
2019-03-09T10:47:56.763Z,10.10
2019-03-09T10:50:23.282Z,10.27
2019-03-09T10:52:49.849Z,7.40
2019-03-09T10:55:25.469Z,9.17
2019-03-09T10:57:52.016Z,9.30
2019-03-09T11:00:21.792Z,12.23
2019-03-09T11:02:48.589Z,15.37
2019-03-09T11:05:15.219Z,11.00
2019-03-09T11:07:41.776Z,9.30
2019-03-09T11:10:08.606Z,14.70
2019-03-09T11:12:35.323Z,9.30
2019-03-09T11:15:02.701Z,8.33
2019-03-09T11:17:29.367Z,7.73
2019-03-09T11:19:55.840Z,15.87
2019-03-09T11:22:22.404Z,9.93
2019-03-09T11:24:48.986Z,8.70
2019-03-09T11:27:15.473Z,8.20
2019-03-09T11:29:42.084Z,10.67
2019-03-09T11:32:09.499Z,11.67
2019-03-09T11:34:36.170Z,10.10
2019-03-09T11:37:02.731Z,10.03
2019-03-09T11:39:29.274Z,8.53
2019-03-09T11:41:56.929Z,10.13
2019-03-09T11:44:23.438Z,7.60
2019-03-09T11:46:50.097Z,7.60
2019-03-09T11:49:16.707Z,8.70
2019-03-09T11:51:45.183Z,7.83
2019-03-09T11:54:12.645Z,7.77
2019-03-09T11:56:39.339Z,9.00
2019-03-09T11:59:06.078Z,9.57
2019-03-09T12:01:32.735Z,11.03
2019-03-09T12:03:59.344Z,10.30
2019-03-09T12:06:26.146Z,8.47
2019-03-09T12:08:52.660Z,12.33
2019-03-09T12:11:19.237Z,8.63
2019-03-09T12:13:45.795Z,9.07
2019-03-09T12:16:12.308Z,12.87
2019-03-09T12:18:38.872Z,7.10
2019-03-09T12:21:05.622Z,9.17
2019-03-09T12:23:32.405Z,8.80
2019-03-09T12:25:58.967Z,8.97
2019-03-09T12:28:25.495Z,7.87
2019-03-09T12:30:52.064Z,6.23
2019-03-09T12:33:18.580Z,11.30
2019-03-09T12:35:45.159Z,8.23
2019-03-09T12:38:11.862Z,11.10
2019-03-09T12:40:38.600Z,9.80
2019-03-09T12:43:05.280Z,9.60
2019-03-09T12:45:31.784Z,9.00
2019-03-09T12:47:58.348Z,7.97
2019-03-09T12:50:26.477Z,10.23
2019-03-09T12:52:53.832Z,7.60
2019-03-09T12:55:20.377Z,10.17
2019-03-09T12:57:46.907Z,6.97
2019-03-09T13:00:20.654Z,8.63
2019-03-09T13:02:47.453Z,8.57
2019-03-09T13:05:15.695Z,8.57
2019-03-09T13:07:42.252Z,10.50
2019-03-09T13:10:09.587Z,10.43
2019-03-09T13:12:36.447Z,9.97
2019-03-09T13:15:04.898Z,7.10
2019-03-09T13:17:31.515Z,8.70
2019-03-09T13:19:58.042Z,9.27
2019-03-09T13:22:24.606Z,11.80
2019-03-09T13:24:51.156Z,8.60
2019-03-09T13:27:17.724Z,13.00
2019-03-09T13:29:44.342Z,9.60
2019-03-09T13:32:11.133Z,7.37
2019-03-09T13:34:38.130Z,12.60
2019-03-09T13:37:04.798Z,7.80
2019-03-09T13:39:31.518Z,14.93
2019-03-09T13:42:00.500Z,8.93
2019-03-09T13:44:26.866Z,8.13
2019-03-09T13:46:53.638Z,7.73
2019-03-09T13:49:20.391Z,9.50
2019-03-09T13:51:46.957Z,8.90
2019-03-09T13:54:13.646Z,9.13
2019-03-09T13:56:40.150Z,6.70
2019-03-09T13:59:06.723Z,9.70
2019-03-09T14:01:33.218Z,9.30
2019-03-09T14:04:00.256Z,10.33
2019-03-09T14:06:27.215Z,9.63
2019-03-09T14:08:54.388Z,8.00
2019-03-09T14:11:20.992Z,7.57
2019-03-09T14:13:47.803Z,9.87
2019-03-09T14:16:14.460Z,9.70
2019-03-09T14:18:41.012Z,7.67
2019-03-09T14:21:07.671Z,8.13
2019-03-09T14:23:34.498Z,8.70
2019-03-09T14:26:01.171Z,8.23
2019-03-09T14:28:27.735Z,10.23
2019-03-09T14:30:54.362Z,9.07
2019-03-09T14:33:21.179Z,11.50
2019-03-09T14:35:47.680Z,9.10
2019-03-09T14:38:14.342Z,7.17
2019-03-09T14:40:40.984Z,8.97
2019-03-09T14:43:07.550Z,6.60
2019-03-09T14:45:34.110Z,9.87
2019-03-09T14:48:00.872Z,8.50
2019-03-09T14:50:27.495Z,7.97
2019-03-09T14:52:54.108Z,12.50
2019-03-09T14:55:20.745Z,7.43
2019-03-09T14:57:47.255Z,10.67
2019-03-09T15:00:24.716Z,10.97
2019-03-09T15:02:51.339Z,11.20
2019-03-09T15:05:18.003Z,8.20
2019-03-09T15:07:44.670Z,8.40
2019-03-09T15:10:11.788Z,7.73
2019-03-09T15:12:38.422Z,7.43
2019-03-09T15:15:11.283Z,7.67
2019-03-09T15:17:37.799Z,11.37
2019-03-09T15:20:07.481Z,8.80
2019-03-09T15:22:34.106Z,10.53
2019-03-09T15:25:00.670Z,6.17
2019-03-09T15:27:27.189Z,7.90
2019-03-09T15:29:53.819Z,10.30
2019-03-09T15:32:20.672Z,13.07
2019-03-09T15:34:47.264Z,11.93
2019-03-09T15:37:13.890Z,11.03
2019-03-09T15:39:40.445Z,9.37
2019-03-09T15:42:07.996Z,10.80
2019-03-09T15:44:34.543Z,8.97
2019-03-09T15:47:01.204Z,8.40
2019-03-09T15:49:27.815Z,8.37
2019-03-09T15:51:54.487Z,6.73
2019-03-09T15:54:21.023Z,9.63
2019-03-09T15:56:47.579Z,8.33
2019-03-09T15:59:14.219Z,8.67
2019-03-09T16:01:40.723Z,7.17
2019-03-09T16:04:07.236Z,9.43
2019-03-09T16:06:33.862Z,9.30
2019-03-09T16:09:00.515Z,8.70
2019-03-09T16:11:27.030Z,11.23
2019-03-09T16:13:53.711Z,7.10
2019-03-09T16:16:20.296Z,7.10
2019-03-09T16:18:46.895Z,11.00
2019-03-09T16:21:13.423Z,11.27
2019-03-09T16:23:40.005Z,5.70
2019-03-09T16:26:06.522Z,8.20
2019-03-09T16:28:33.283Z,7.73
2019-03-09T16:30:59.798Z,9.03
2019-03-09T16:33:26.673Z,9.70
2019-03-09T16:35:53.374Z,6.20
2019-03-09T16:38:20.038Z,8.07
2019-03-09T16:40:46.601Z,13.00
2019-03-09T16:43:13.243Z,6.60
2019-03-09T16:45:39.778Z,7.33
2019-03-09T16:48:06.371Z,6.47
2019-03-09T16:50:32.863Z,5.90
2019-03-09T16:53:00.256Z,7.83
2019-03-09T16:55:26.719Z,4.03
2019-03-09T16:57:53.256Z,5.00
2019-03-09T17:00:21.031Z,5.20
2019-03-09T17:02:47.911Z,4.30
2019-03-09T17:05:14.591Z,5.43
2019-03-09T17:07:41.207Z,5.30
2019-03-09T17:10:09.176Z,7.73
2019-03-09T17:12:35.748Z,5.57
2019-03-09T17:15:05.358Z,8.27
2019-03-09T17:17:31.780Z,7.47
2019-03-09T17:19:58.499Z,5.03
2019-03-09T17:22:32.734Z,7.03
2019-03-09T17:24:53.436Z,5.73
2019-03-09T17:27:20.104Z,7.23
2019-03-09T17:29:46.520Z,7.57
2019-03-09T17:32:13.168Z,5.67
2019-03-09T17:34:39.675Z,5.03
2019-03-09T17:37:06.436Z,4.87
2019-03-09T17:39:33.159Z,5.43
2019-03-09T17:41:59.830Z,5.70
2019-03-09T17:44:26.636Z,6.77
2019-03-09T17:46:53.352Z,12.37
2019-03-09T17:49:20.105Z,5.37
2019-03-09T17:51:46.666Z,10.27
2019-03-09T17:54:13.328Z,4.83
2019-03-09T17:56:39.878Z,7.23
2019-03-09T17:59:06.450Z,7.03
2019-03-09T18:01:33.155Z,5.67
2019-03-09T18:04:00.626Z,3.73
2019-03-09T18:06:27.283Z,5.20
2019-03-09T18:08:53.983Z,7.80
2019-03-09T18:11:20.504Z,7.10
2019-03-09T18:13:46.988Z,4.40
2019-03-09T18:16:13.590Z,6.93
2019-03-09T18:18:40.747Z,7.23
2019-03-09T18:21:08.058Z,7.63
2019-03-09T18:23:34.815Z,5.30
2019-03-09T18:26:03.040Z,4.47
2019-03-09T18:28:29.815Z,6.10
2019-03-09T18:30:56.767Z,5.07
2019-03-09T18:33:23.983Z,8.13
2019-03-09T18:35:50.618Z,6.20
2019-03-09T18:38:17.294Z,6.77
2019-03-09T18:40:43.894Z,6.77
2019-03-09T18:43:10.497Z,6.83
2019-03-09T18:45:37.018Z,5.17
2019-03-09T18:48:03.711Z,8.53
2019-03-09T18:50:30.398Z,6.33
2019-03-09T18:52:56.806Z,3.90
2019-03-09T18:55:23.233Z,4.80
2019-03-09T18:57:50.027Z,4.43
2019-03-09T19:00:20.711Z,3.63
2019-03-09T19:02:47.469Z,2.33
2019-03-09T19:05:14.087Z,2.13
2019-03-09T19:07:40.740Z,2.10
2019-03-09T19:10:13.638Z,1.23
2019-03-09T19:12:40.155Z,1.33
2019-03-09T19:15:09.732Z,1.70
2019-03-09T19:17:36.351Z,2.17
2019-03-09T19:20:10.790Z,0.90
2019-03-09T19:22:38.238Z,1.50
2019-03-09T19:25:07.564Z,2.10
2019-03-09T19:27:34.226Z,1.47
2019-03-09T19:30:00.743Z,2.23
2019-03-09T19:32:27.528Z,1.97
2019-03-09T19:34:54.146Z,1.53
2019-03-09T19:37:22.451Z,1.57
2019-03-09T19:39:49.054Z,1.43
2019-03-09T19:42:15.720Z,4.50
2019-03-09T19:44:42.435Z,6.70
2019-03-09T19:47:09.120Z,4.50
2019-03-09T19:49:35.736Z,4.70
2019-03-09T19:52:02.468Z,5.43
2019-03-09T19:54:30.434Z,4.33
2019-03-09T19:56:56.934Z,4.73
2019-03-09T19:59:24.360Z,6.97
2019-03-09T20:01:51.929Z,8.80
2019-03-09T20:04:18.641Z,3.73
2019-03-09T20:06:45.377Z,8.10
2019-03-09T20:09:12.451Z,3.87
2019-03-09T20:11:39.520Z,12.03
2019-03-09T20:14:06.797Z,8.80
2019-03-09T20:16:33.314Z,3.33
2019-03-09T20:18:59.925Z,7.57
2019-03-09T20:21:26.511Z,8.30
2019-03-09T20:23:52.930Z,7.67
2019-03-09T20:26:19.542Z,6.53
2019-03-09T20:28:46.316Z,5.87
2019-03-09T20:31:12.841Z,4.33
2019-03-09T20:33:39.439Z,3.57
2019-03-09T20:36:05.971Z,2.20
2019-03-09T20:38:32.582Z,4.03
2019-03-09T20:40:59.250Z,2.57
2019-03-09T20:43:25.790Z,3.40
2019-03-09T20:45:52.459Z,3.00
2019-03-09T20:48:19.032Z,3.87
2019-03-09T20:50:45.539Z,2.97
2019-03-09T20:53:12.079Z,1.77
2019-03-09T20:55:38.712Z,1.90
2019-03-09T20:58:05.387Z,0.70
2019-03-09T21:00:32.643Z,3.10
2019-03-09T21:02:59.456Z,2.17
2019-03-09T21:05:26.528Z,1.73
2019-03-09T21:07:53.126Z,2.43
2019-03-09T21:10:19.991Z,1.57
2019-03-09T21:13:06.915Z,3.13
2019-03-09T21:15:33.490Z,2.50
2019-03-09T21:18:00.035Z,3.53
2019-03-09T21:20:26.760Z,1.33
2019-03-09T21:22:53.652Z,3.40
2019-03-09T21:25:20.278Z,3.13
2019-03-09T21:27:46.851Z,2.73
2019-03-09T21:30:13.796Z,3.90
2019-03-09T21:32:40.305Z,3.80
2019-03-09T21:35:06.955Z,5.03
2019-03-09T21:37:33.484Z,5.03
2019-03-09T21:40:00.042Z,3.33
2019-03-09T21:42:26.560Z,6.50
2019-03-09T21:44:53.120Z,7.80
2019-03-09T21:47:19.744Z,6.70
2019-03-09T21:49:46.533Z,5.60
2019-03-09T21:52:13.155Z,7.40
2019-03-09T21:54:40.040Z,8.17
2019-03-09T21:57:06.537Z,9.80
2019-03-09T21:59:33.145Z,10.17
2019-03-09T22:01:59.819Z,8.67
2019-03-09T22:04:26.576Z,9.50
2019-03-09T22:06:53.143Z,7.90
2019-03-09T22:09:19.691Z,10.03
2019-03-09T22:11:47.118Z,12.83
2019-03-09T22:14:13.722Z,11.13
2019-03-09T22:16:42.304Z,12.67
2019-03-09T22:19:09.473Z,6.40
2019-03-09T22:21:36.347Z,2.73
2019-03-09T22:24:03.891Z,2.60
2019-03-09T22:26:31.014Z,2.60
2019-03-09T22:28:57.748Z,4.57
2019-03-09T22:31:24.388Z,1.40
2019-03-09T22:33:51.101Z,2.20
2019-03-09T22:36:17.676Z,3.53
2019-03-09T22:38:44.295Z,4.53
2019-03-09T22:41:11.050Z,2.87
2019-03-09T22:43:38.031Z,5.77
2019-03-09T22:46:04.518Z,6.53
2019-03-09T22:48:31.023Z,5.30
2019-03-09T22:50:57.591Z,11.97
2019-03-09T22:53:24.219Z,12.00
2019-03-09T22:55:50.758Z,12.23
2019-03-09T22:58:17.460Z,8.03
2019-03-09T23:00:44.351Z,8.73
2019-03-09T23:03:11.102Z,7.10
2019-03-09T23:05:37.744Z,8.87
2019-03-09T23:08:04.471Z,9.83
2019-03-09T23:10:32.743Z,7.87
2019-03-09T23:13:00.042Z,5.80
2019-03-09T23:15:26.427Z,6.17
2019-03-09T23:17:53.059Z,6.23
2019-03-09T23:20:21.271Z,5.23
2019-03-09T23:22:47.826Z,7.77
2019-03-09T23:25:14.729Z,5.77
2019-03-09T23:27:43.923Z,7.03
2019-03-09T23:30:14.114Z,10.47
2019-03-09T23:32:40.825Z,10.13
2019-03-09T23:35:07.663Z,8.00
2019-03-09T23:37:34.420Z,5.13
2019-03-09T23:40:01.069Z,8.33
2019-03-09T23:42:27.806Z,5.67
2019-03-09T23:44:54.323Z,8.70
2019-03-09T23:47:21.865Z,7.13
2019-03-09T23:49:48.986Z,14.10
2019-03-09T23:52:15.768Z,8.60
2019-03-09T23:54:43.079Z,10.70
2019-03-09T23:57:09.827Z,7.90
2019-03-09T23:59:36.647Z,8.77
